sensor_id;sensor_type;location;lat;lon;timestamp;pressure;altitude;pressure_sealevel;temperature;humidity
55187;BME280;55457;52.002;5.464;2022-09-23T00:01:20;101598.16;;;23.64;47.34
55187;BME280;55457;52.002;5.464;2022-09-23T00:03:46;101600.06;;;23.64;47.12
55187;BME280;55457;52.002;5.464;2022-09-23T00:06:16;101599.22;;;23.63;47.27
55187;BME280;55457;52.002;5.464;2022-09-23T00:08:41;101596.50;;;23.63;47.47
55187;BME280;55457;52.002;5.464;2022-09-23T00:11:14;101601.94;;;23.63;47.17
55187;BME280;55457;52.002;5.464;2022-09-23T00:13:41;101594.84;;;23.62;47.51
55187;BME280;55457;52.002;5.464;2022-09-23T00:16:14;101590.47;;;23.61;47.10
55187;BME280;55457;52.002;5.464;2022-09-23T00:18:41;101587.75;;;23.61;47.42
55187;BME280;55457;52.002;5.464;2022-09-23T00:21:09;101591.53;;;23.60;47.29
55187;BME280;55457;52.002;5.464;2022-09-23T00:23:37;101586.09;;;23.60;47.49
55187;BME280;55457;52.002;5.464;2022-09-23T00:26:04;101590.47;;;23.61;47.47
55187;BME280;55457;52.002;5.464;2022-09-23T00:28:31;101587.16;;;23.59;47.31
55187;BME280;55457;52.002;5.464;2022-09-23T00:31:11;101586.09;;;23.60;47.51
55187;BME280;55457;52.002;5.464;2022-09-23T00:33:37;101577.13;;;23.60;47.45
55187;BME280;55457;52.002;5.464;2022-09-23T00:36:06;101573.53;;;23.59;47.46
55187;BME280;55457;52.002;5.464;2022-09-23T00:38:32;101568.97;;;23.60;47.41
55187;BME280;55457;52.002;5.464;2022-09-23T00:40:58;101567.28;;;23.59;47.16
55187;BME280;55457;52.002;5.464;2022-09-23T00:43:57;101570.00;;;23.59;47.24
55187;BME280;55457;52.002;5.464;2022-09-23T00:48:58;101561.28;;;23.57;47.50
55187;BME280;55457;52.002;5.464;2022-09-23T00:51:31;101560.47;;;23.56;47.32
55187;BME280;55457;52.002;5.464;2022-09-23T00:53:57;101558.56;;;23.57;47.70
55187;BME280;55457;52.002;5.464;2022-09-23T00:56:23;101560.47;;;23.56;47.67
55187;BME280;55457;52.002;5.464;2022-09-23T00:58:49;101562.56;;;23.54;47.38
55187;BME280;55457;52.002;5.464;2022-09-23T01:01:15;101559.63;;;23.56;47.52
55187;BME280;55457;52.002;5.464;2022-09-23T01:06:08;101561.53;;;23.55;47.35
55187;BME280;55457;52.002;5.464;2022-09-23T01:08:34;101562.56;;;23.54;47.54
55187;BME280;55457;52.002;5.464;2022-09-23T01:11:17;101547.34;;;23.53;47.59
55187;BME280;55457;52.002;5.464;2022-09-23T01:13:59;101560.72;;;23.55;47.62
55187;BME280;55457;52.002;5.464;2022-09-23T01:23:27;101544.88;;;23.52;47.57
55187;BME280;55457;52.002;5.464;2022-09-23T01:31:14;101552.47;;;23.50;47.44
55187;BME280;55457;52.002;5.464;2022-09-23T01:36:41;101542.41;;;23.50;47.53
55187;BME280;55457;52.002;5.464;2022-09-23T01:42:16;101536.97;;;23.50;47.70
55187;BME280;55457;52.002;5.464;2022-09-23T01:44:57;101541.59;;;23.50;47.68
55187;BME280;55457;52.002;5.464;2022-09-23T01:47:29;101539.69;;;23.50;47.73
55187;BME280;55457;52.002;5.464;2022-09-23T01:50:10;101537.19;;;23.49;47.52
55187;BME280;55457;52.002;5.464;2022-09-23T01:53:01;101528.22;;;23.48;47.58
55187;BME280;55457;52.002;5.464;2022-09-23T01:55:41;101528.22;;;23.48;47.48
55187;BME280;55457;52.002;5.464;2022-09-23T01:58:13;101532.00;;;23.47;47.63
55187;BME280;55457;52.002;5.464;2022-09-23T02:01:08;101532.00;;;23.47;47.54
55187;BME280;55457;52.002;5.464;2022-09-23T02:08:46;101531.19;;;23.47;47.66
55187;BME280;55457;52.002;5.464;2022-09-23T02:11:15;101531.19;;;23.47;47.51
55187;BME280;55457;52.002;5.464;2022-09-23T02:16:46;101514.88;;;23.47;47.74
55187;BME280;55457;52.002;5.464;2022-09-23T02:19:20;101512.41;;;23.45;47.81
55187;BME280;55457;52.002;5.464;2022-09-23T02:21:52;101511.31;;;23.46;47.86
55187;BME280;55457;52.002;5.464;2022-09-23T02:24:24;101506.97;;;23.45;47.85
55187;BME280;55457;52.002;5.464;2022-09-23T02:26:54;101501.53;;;23.45;47.77
55187;BME280;55457;52.002;5.464;2022-09-23T02:29:33;101505.31;;;23.44;47.88
55187;BME280;55457;52.002;5.464;2022-09-23T02:40:05;101490.88;;;23.43;47.47
55187;BME280;55457;52.002;5.464;2022-09-23T02:45:25;101484.88;;;23.41;47.86
55187;BME280;55457;52.002;5.464;2022-09-23T02:47:56;101473.16;;;23.41;47.51
55187;BME280;55457;52.002;5.464;2022-09-23T02:50:22;101480.50;;;23.40;47.83
55187;BME280;55457;52.002;5.464;2022-09-23T02:52:48;101483.22;;;23.40;47.87
55187;BME280;55457;52.002;5.464;2022-09-23T02:55:16;101473.16;;;23.41;47.46
55187;BME280;55457;52.002;5.464;2022-09-23T02:57:42;101472.34;;;23.40;47.67
55187;BME280;55457;52.002;5.464;2022-09-23T03:00:09;101477.78;;;23.40;47.87
55187;BME280;55457;52.002;5.464;2022-09-23T03:02:51;101478.84;;;23.39;47.63
55187;BME280;55457;52.002;5.464;2022-09-23T03:05:26;101474.25;;;23.40;47.42
55187;BME280;55457;52.002;5.464;2022-09-23T03:11:06;101472.59;;;23.39;47.57
55187;BME280;55457;52.002;5.464;2022-09-23T03:16:44;101462.75;;;23.38;47.70
55187;BME280;55457;52.002;5.464;2022-09-23T03:19:39;101462.75;;;23.38;47.70
55187;BME280;55457;52.002;5.464;2022-09-23T03:22:53;101465.75;;;23.36;47.59
55187;BME280;55457;52.002;5.464;2022-09-23T03:25:11;101463.84;;;23.37;47.70
55187;BME280;55457;52.002;5.464;2022-09-23T03:27:37;101464.94;;;23.36;47.62
55187;BME280;55457;52.002;5.464;2022-09-23T03:30:07;101469.28;;;23.37;47.98
55187;BME280;55457;52.002;5.464;2022-09-23T03:32:33;101466.56;;;23.37;47.71
55187;BME280;55457;52.002;5.464;2022-09-23T03:35:00;101459.47;;;23.36;48.00
55187;BME280;55457;52.002;5.464;2022-09-23T03:37:31;101462.19;;;23.36;47.93
55187;BME280;55457;52.002;5.464;2022-09-23T03:40:08;101468.72;;;23.35;48.03
55187;BME280;55457;52.002;5.464;2022-09-23T03:42:34;101464.09;;;23.35;47.72
55187;BME280;55457;52.002;5.464;2022-09-23T03:45:04;101457.84;;;23.35;47.87
55187;BME280;55457;52.002;5.464;2022-09-23T03:47:33;101457.84;;;23.35;47.76
55187;BME280;55457;52.002;5.464;2022-09-23T03:49:59;101459.75;;;23.34;47.86
55187;BME280;55457;52.002;5.464;2022-09-23T03:52:24;101452.41;;;23.35;47.83
55187;BME280;55457;52.002;5.464;2022-09-23T03:54:50;101455.13;;;23.35;47.77
55187;BME280;55457;52.002;5.464;2022-09-23T03:57:17;101447.19;;;23.33;47.92
55187;BME280;55457;52.002;5.464;2022-09-23T03:59:42;101439.88;;;23.34;47.92
55187;BME280;55457;52.002;5.464;2022-09-23T04:02:08;101439.03;;;23.33;47.82
55187;BME280;55457;52.002;5.464;2022-09-23T04:04:38;101438.22;;;23.33;47.87
55187;BME280;55457;52.002;5.464;2022-09-23T04:07:05;101439.03;;;23.33;48.04
55187;BME280;55457;52.002;5.464;2022-09-23T04:09:30;101428.16;;;23.33;48.04
55187;BME280;55457;52.002;5.464;2022-09-23T04:11:56;101438.22;;;23.33;48.21
55187;BME280;55457;52.002;5.464;2022-09-23T04:14:21;101436.56;;;23.32;47.78
55187;BME280;55457;52.002;5.464;2022-09-23T04:16:48;101431.94;;;23.32;48.06
55187;BME280;55457;52.002;5.464;2022-09-23T04:19:14;101435.75;;;23.31;48.21
55187;BME280;55457;52.002;5.464;2022-09-23T04:21:41;101434.94;;;23.31;47.82
55187;BME280;55457;52.002;5.464;2022-09-23T04:24:07;101432.22;;;23.31;48.02
55187;BME280;55457;52.002;5.464;2022-09-23T04:26:33;101426.78;;;23.31;48.00
55187;BME280;55457;52.002;5.464;2022-09-23T04:28:58;101432.22;;;23.31;47.94
55187;BME280;55457;52.002;5.464;2022-09-23T04:31:24;101425.13;;;23.30;47.74
55187;BME280;55457;52.002;5.464;2022-09-23T04:33:51;101427.84;;;23.30;47.83
55187;BME280;55457;52.002;5.464;2022-09-23T04:36:17;101423.22;;;23.30;48.09
55187;BME280;55457;52.002;5.464;2022-09-23T04:38:46;101422.41;;;23.30;47.83
55187;BME280;55457;52.002;5.464;2022-09-23T04:41:13;101416.38;;;23.28;48.09
55187;BME280;55457;52.002;5.464;2022-09-23T04:43:38;101420.75;;;23.29;48.22
55187;BME280;55457;52.002;5.464;2022-09-23T04:46:06;101428.06;;;23.28;47.97
55187;BME280;55457;52.002;5.464;2022-09-23T04:48:32;101422.63;;;23.28;47.67
55187;BME280;55457;52.002;5.464;2022-09-23T04:51:05;101419.09;;;23.28;47.68
55187;BME280;55457;52.002;5.464;2022-09-23T04:53:31;101419.09;;;23.28;47.84
55187;BME280;55457;52.002;5.464;2022-09-23T04:56:04;101426.44;;;23.27;47.61
55187;BME280;55457;52.002;5.464;2022-09-23T04:58:30;101422.88;;;23.27;47.71
55187;BME280;55457;52.002;5.464;2022-09-23T05:00:56;101422.06;;;23.26;48.03
55187;BME280;55457;52.002;5.464;2022-09-23T05:03:24;101421.25;;;23.26;48.07
55187;BME280;55457;52.002;5.464;2022-09-23T05:05:49;101421.25;;;23.26;47.69
55187;BME280;55457;52.002;5.464;2022-09-23T05:08:15;101414.16;;;23.25;47.70
55187;BME280;55457;52.002;5.464;2022-09-23T05:10:40;101421.25;;;23.26;47.69
55187;BME280;55457;52.002;5.464;2022-09-23T05:13:07;101421.25;;;23.26;47.65
55187;BME280;55457;52.002;5.464;2022-09-23T05:15:32;101410.63;;;23.24;47.79
55187;BME280;55457;52.002;5.464;2022-09-23T05:17:57;101420.69;;;23.24;47.92
55187;BME280;55457;52.002;5.464;2022-09-23T05:20:23;101423.41;;;23.24;47.97
55187;BME280;55457;52.002;5.464;2022-09-23T05:22:49;101419.00;;;23.23;47.72
55187;BME280;55457;52.002;5.464;2022-09-23T05:25:14;101416.28;;;23.23;47.95
55187;BME280;55457;52.002;5.464;2022-09-23T05:27:39;101420.91;;;23.22;47.72
55187;BME280;55457;52.002;5.464;2022-09-23T05:30:05;101417.38;;;23.22;47.78
55187;BME280;55457;52.002;5.464;2022-09-23T05:32:31;101414.66;;;23.22;47.84
55187;BME280;55457;52.002;5.464;2022-09-23T05:34:57;101423.88;;;23.21;47.88
55187;BME280;55457;52.002;5.464;2022-09-23T05:37:22;101408.41;;;23.21;47.86
55187;BME280;55457;52.002;5.464;2022-09-23T05:39:47;101423.06;;;23.20;48.07
55187;BME280;55457;52.002;5.464;2022-09-23T05:42:14;101416.81;;;23.20;47.74
55187;BME280;55457;52.002;5.464;2022-09-23T05:44:39;101425.78;;;23.20;47.87
55187;BME280;55457;52.002;5.464;2022-09-23T05:47:05;101416.00;;;23.19;48.10
55187;BME280;55457;52.002;5.464;2022-09-23T05:49:30;101421.44;;;23.19;47.76
55187;BME280;55457;52.002;5.464;2022-09-23T05:51:55;101426.88;;;23.19;47.92
55187;BME280;55457;52.002;5.464;2022-09-23T05:54:21;101425.22;;;23.18;47.97
55187;BME280;55457;52.002;5.464;2022-09-23T05:56:46;101427.09;;;23.17;48.00
55187;BME280;55457;52.002;5.464;2022-09-23T05:59:11;101429.81;;;23.17;47.91
55187;BME280;55457;52.002;5.464;2022-09-23T06:01:37;101431.50;;;23.18;47.80
55187;BME280;55457;52.002;5.464;2022-09-23T06:04:04;101439.66;;;23.18;47.97
55187;BME280;55457;52.002;5.464;2022-09-23T06:06:38;101423.56;;;23.17;47.96
55187;BME280;55457;52.002;5.464;2022-09-23T06:09:05;101425.72;;;23.15;48.24
55187;BME280;55457;52.002;5.464;2022-09-23T06:11:32;101422.16;;;23.14;48.14
55187;BME280;55457;52.002;5.464;2022-09-23T06:13:58;101424.06;;;23.14;47.80
55187;BME280;55457;52.002;5.464;2022-09-23T06:16:25;101432.44;;;23.12;47.57
55187;BME280;55457;52.002;5.464;2022-09-23T06:18:51;101424.56;;;23.11;47.54
55187;BME280;55457;52.002;5.464;2022-09-23T06:21:17;101424.81;;;23.09;47.70
55187;BME280;55457;52.002;5.464;2022-09-23T06:23:43;101429.16;;;23.10;47.33
55187;BME280;55457;52.002;5.464;2022-09-23T06:26:11;101423.16;;;23.08;47.18
55187;BME280;55457;52.002;5.464;2022-09-23T06:28:38;101417.72;;;23.08;47.28
55187;BME280;55457;52.002;5.464;2022-09-23T06:31:12;101419.84;;;23.06;47.14
55187;BME280;55457;52.002;5.464;2022-09-23T06:33:40;101419.28;;;23.04;47.42
55187;BME280;55457;52.002;5.464;2022-09-23T06:36:06;101419.28;;;23.04;46.94
55187;BME280;55457;52.002;5.464;2022-09-23T06:38:32;101419.28;;;23.04;47.11
55187;BME280;55457;52.002;5.464;2022-09-23T06:41:00;101421.19;;;23.04;47.01
55187;BME280;55457;52.002;5.464;2022-09-23T06:43:27;101421.44;;;23.02;46.70
55187;BME280;55457;52.002;5.464;2022-09-23T06:45:53;101418.72;;;23.02;47.12
55187;BME280;55457;52.002;5.464;2022-09-23T06:48:21;101425.22;;;23.01;47.04
55187;BME280;55457;52.002;5.464;2022-09-23T06:50:47;101425.22;;;23.01;46.71
55187;BME280;55457;52.002;5.464;2022-09-23T06:53:14;101418.94;;;23.01;46.97
55187;BME280;55457;52.002;5.464;2022-09-23T06:55:39;101417.06;;;23.01;46.93
55187;BME280;55457;52.002;5.464;2022-09-23T06:58:06;101419.78;;;23.01;46.50
55187;BME280;55457;52.002;5.464;2022-09-23T07:00:32;101417.31;;;23.00;46.37
55187;BME280;55457;52.002;5.464;2022-09-23T07:02:57;101416.50;;;22.99;46.61
55187;BME280;55457;52.002;5.464;2022-09-23T07:05:22;101417.31;;;23.00;46.38
55187;BME280;55457;52.002;5.464;2022-09-23T07:07:48;101422.75;;;23.00;46.36
55187;BME280;55457;52.002;5.464;2022-09-23T07:10:13;101412.69;;;23.00;46.77
55187;BME280;55457;52.002;5.464;2022-09-23T07:12:39;101411.06;;;22.99;46.64
55187;BME280;55457;52.002;5.464;2022-09-23T07:15:05;101414.59;;;23.00;46.59
55187;BME280;55457;52.002;5.464;2022-09-23T07:17:31;101405.63;;;22.99;46.65
55187;BME280;55457;52.002;5.464;2022-09-23T07:19:56;101401.81;;;23.00;46.58
55187;BME280;55457;52.002;5.464;2022-09-23T07:22:23;101406.69;;;22.98;46.31
55187;BME280;55457;52.002;5.464;2022-09-23T07:24:49;101409.41;;;22.98;46.27
55187;BME280;55457;52.002;5.464;2022-09-23T07:27:16;101407.50;;;22.99;46.53
55187;BME280;55457;52.002;5.464;2022-09-23T07:29:44;101411.06;;;22.99;46.19
55187;BME280;55457;52.002;5.464;2022-09-23T07:32:11;101410.22;;;22.99;46.34
55187;BME280;55457;52.002;5.464;2022-09-23T07:34:37;101417.56;;;22.98;46.32
55187;BME280;55457;52.002;5.464;2022-09-23T07:37:02;101425.72;;;22.98;46.57
55187;BME280;55457;52.002;5.464;2022-09-23T07:39:28;101426.78;;;22.97;46.40
55187;BME280;55457;52.002;5.464;2022-09-23T07:41:53;101425.13;;;22.96;46.71
55187;BME280;55457;52.002;5.464;2022-09-23T07:44:19;101434.94;;;22.97;46.37
55187;BME280;55457;52.002;5.464;2022-09-23T07:46:46;101434.94;;;22.97;46.47
55187;BME280;55457;52.002;5.464;2022-09-23T07:49:12;101431.16;;;22.98;46.61
55187;BME280;55457;52.002;5.464;2022-09-23T07:51:39;101431.97;;;22.99;46.45
55187;BME280;55457;52.002;5.464;2022-09-23T07:54:06;101429.00;;;23.00;46.59
55187;BME280;55457;52.002;5.464;2022-09-23T07:56:34;101433.63;;;23.00;46.72
55187;BME280;55457;52.002;5.464;2022-09-23T07:59:00;101422.75;;;23.00;46.65
55187;BME280;55457;52.002;5.464;2022-09-23T08:01:33;101420.59;;;23.02;46.39
55187;BME280;55457;52.002;5.464;2022-09-23T08:04:01;101418.47;;;23.04;46.54
55187;BME280;55457;52.002;5.464;2022-09-23T08:06:28;101427.19;;;23.06;46.40
55187;BME280;55457;52.002;5.464;2022-09-23T08:08:56;101421.50;;;23.07;46.69
55187;BME280;55457;52.002;5.464;2022-09-23T08:11:22;101427.53;;;23.09;46.67
55187;BME280;55457;52.002;5.464;2022-09-23T08:13:49;101422.91;;;23.10;46.50
55187;BME280;55457;52.002;5.464;2022-09-23T08:16:14;101427.28;;;23.11;46.40
55187;BME280;55457;52.002;5.464;2022-09-23T08:18:42;101429.50;;;23.14;46.46
55187;BME280;55457;52.002;5.464;2022-09-23T08:21:08;101425.97;;;23.13;46.76
55187;BME280;55457;52.002;5.464;2022-09-23T08:23:33;101419.44;;;23.14;46.58
55187;BME280;55457;52.002;5.464;2022-09-23T08:26:00;101423.81;;;23.15;46.51
55187;BME280;55457;52.002;5.464;2022-09-23T08:28:26;101421.34;;;23.14;46.43
55187;BME280;55457;52.002;5.464;2022-09-23T08:30:52;101415.66;;;23.15;46.18
55187;BME280;55457;52.002;5.464;2022-09-23T08:33:18;101415.66;;;23.15;46.24
55187;BME280;55457;52.002;5.464;2022-09-23T08:35:43;101422.50;;;23.18;46.15
55187;BME280;55457;52.002;5.464;2022-09-23T08:38:08;101423.34;;;23.18;46.25
55187;BME280;55457;52.002;5.464;2022-09-23T08:40:39;101422.25;;;23.20;46.19
55187;BME280;55457;52.002;5.464;2022-09-23T08:43:07;101420.59;;;23.18;46.01
55187;BME280;55457;52.002;5.464;2022-09-23T08:45:34;101420.59;;;23.18;46.16
55187;BME280;55457;52.002;5.464;2022-09-23T08:48:06;101423.34;;;23.18;46.14
55187;BME280;55457;52.002;5.464;2022-09-23T08:50:47;101426.28;;;23.17;46.12
55187;BME280;55457;52.002;5.464;2022-09-23T08:53:23;101428.16;;;23.16;45.92
55187;BME280;55457;52.002;5.464;2022-09-23T08:55:51;101421.91;;;23.16;45.94
55187;BME280;55457;52.002;5.464;2022-09-23T09:01:25;101424.38;;;23.17;45.94
55187;BME280;55457;52.002;5.464;2022-09-23T09:04:09;101424.38;;;23.17;45.97
55187;BME280;55457;52.002;5.464;2022-09-23T09:06:40;101420.84;;;23.17;45.88
55187;BME280;55457;52.002;5.464;2022-09-23T09:09:17;101428.16;;;23.16;45.88
55187;BME280;55457;52.002;5.464;2022-09-23T09:11:45;101424.63;;;23.16;45.89
55187;BME280;55457;52.002;5.464;2022-09-23T09:16:54;101422.72;;;23.16;45.95
55187;BME280;55457;52.002;5.464;2022-09-23T09:19:31;101417.28;;;23.16;46.23
55187;BME280;55457;52.002;5.464;2022-09-23T09:22:03;101417.28;;;23.16;45.94
55187;BME280;55457;52.002;5.464;2022-09-23T09:24:33;101422.50;;;23.18;46.05
55187;BME280;55457;52.002;5.464;2022-09-23T09:27:19;101410.22;;;23.15;45.77
55187;BME280;55457;52.002;5.464;2022-09-23T09:29:47;101414.56;;;23.16;45.52
55187;BME280;55457;52.002;5.464;2022-09-23T09:32:38;101406.41;;;23.16;45.59
55187;BME280;55457;52.002;5.464;2022-09-23T09:35:35;101411.84;;;23.16;45.81
55187;BME280;55457;52.002;5.464;2022-09-23T09:38:02;101403.97;;;23.15;45.73
55187;BME280;55457;52.002;5.464;2022-09-23T09:40:30;101412.94;;;23.15;45.50
55187;BME280;55457;52.002;5.464;2022-09-23T09:42:55;101408.56;;;23.14;45.63
55187;BME280;55457;52.002;5.464;2022-09-23T09:45:51;101410.22;;;23.15;45.75
55187;BME280;55457;52.002;5.464;2022-09-23T09:48:34;101406.41;;;23.16;45.62
55187;BME280;55457;52.002;5.464;2022-09-23T09:51:20;101407.50;;;23.15;45.95
55187;BME280;55457;52.002;5.464;2022-09-23T09:53:46;101408.31;;;23.16;45.59
55187;BME280;55457;52.002;5.464;2022-09-23T09:56:14;101404.53;;;23.17;45.43
55187;BME280;55457;52.002;5.464;2022-09-23T09:58:51;101395.53;;;23.16;45.72
55187;BME280;55457;52.002;5.464;2022-09-23T10:01:22;101403.47;;;23.18;45.68
55187;BME280;55457;52.002;5.464;2022-09-23T10:03:51;101403.47;;;23.18;45.56
55187;BME280;55457;52.002;5.464;2022-09-23T10:06:27;101394.47;;;23.17;45.45
55187;BME280;55457;52.002;5.464;2022-09-23T10:11:33;101385.81;;;23.21;45.60
55187;BME280;55457;52.002;5.464;2022-09-23T10:16:24;101388.63;;;23.26;45.51
55187;BME280;55457;52.002;5.464;2022-09-23T10:18:50;101381.03;;;23.28;45.80
55187;BME280;55457;52.002;5.464;2022-09-23T10:21:20;101381.34;;;23.31;45.68
55187;BME280;55457;52.002;5.464;2022-09-23T10:23:49;101372.94;;;23.33;45.72
55187;BME280;55457;52.002;5.464;2022-09-23T10:26:24;101374.34;;;23.35;45.75
55187;BME280;55457;52.002;5.464;2022-09-23T10:28:51;101368.91;;;23.35;45.62
55187;BME280;55457;52.002;5.464;2022-09-23T10:31:31;101372.44;;;23.36;45.82
55187;BME280;55457;52.002;5.464;2022-09-23T10:34:25;101379.19;;;23.33;45.53
55187;BME280;55457;52.002;5.464;2022-09-23T10:37:05;101372.13;;;23.32;45.53
55187;BME280;55457;52.002;5.464;2022-09-23T10:39:31;101371.03;;;23.33;45.85
55187;BME280;55457;52.002;5.464;2022-09-23T10:45:26;101370.72;;;23.30;45.58
55187;BME280;55457;52.002;5.464;2022-09-23T10:48:20;101377.25;;;23.29;45.91
55187;BME280;55457;52.002;5.464;2022-09-23T10:50:50;101370.16;;;23.28;45.88
55187;BME280;55457;52.002;5.464;2022-09-23T11:01:42;101374.47;;;23.24;45.73
55187;BME280;55457;52.002;5.464;2022-09-23T11:04:26;101372.78;;;23.23;45.99
55187;BME280;55457;52.002;5.464;2022-09-23T11:07:02;101369.03;;;23.24;45.92
55187;BME280;55457;52.002;5.464;2022-09-23T11:18:09;101366.31;;;23.24;45.91
55187;BME280;55457;52.002;5.464;2022-09-23T11:29:00;101366.53;;;23.22;45.96
55187;BME280;55457;52.002;5.464;2022-09-23T11:36:58;101366.22;;;23.18;45.24
55187;BME280;55457;52.002;5.464;2022-09-23T11:39:43;101360.78;;;23.18;45.13
55187;BME280;55457;52.002;5.464;2022-09-23T11:42:20;101354.84;;;23.22;45.19
55187;BME280;55457;52.002;5.464;2022-09-23T11:44:54;101348.38;;;23.28;45.36
55187;BME280;55457;52.002;5.464;2022-09-23T11:47:32;101354.41;;;23.30;45.24
55187;BME280;55457;52.002;5.464;2022-09-23T11:52:48;101351.69;;;23.30;44.24
55187;BME280;55457;52.002;5.464;2022-09-23T11:55:26;101350.88;;;23.29;44.60
55187;BME280;55457;52.002;5.464;2022-09-23T11:58:23;101347.91;;;23.31;44.48
55187;BME280;55457;52.002;5.464;2022-09-23T12:01:07;101346.50;;;23.28;44.27
55187;BME280;55457;52.002;5.464;2022-09-23T12:03:48;101349.22;;;23.28;44.83
55187;BME280;55457;52.002;5.464;2022-09-23T12:06:20;101334.22;;;23.26;44.48
55187;BME280;55457;52.002;5.464;2022-09-23T12:08:51;101337.50;;;23.28;44.95
55187;BME280;55457;52.002;5.464;2022-09-23T12:14:19;101338.53;;;23.22;44.62
55187;BME280;55457;52.002;5.464;2022-09-23T12:28:08;101318.16;;;23.02;45.33
55187;BME280;55457;52.002;5.464;2022-09-23T12:30:36;101314.91;;;23.05;45.30
55187;BME280;55457;52.002;5.464;2022-09-23T12:35:54;101314.97;;;23.10;45.29
55187;BME280;55457;52.002;5.464;2022-09-23T12:40:58;101309.06;;;23.13;45.31
55187;BME280;55457;52.002;5.464;2022-09-23T12:43:30;101301.72;;;23.14;44.93
55187;BME280;55457;52.002;5.464;2022-09-23T12:51:20;101301.47;;;23.15;45.33
55187;BME280;55457;52.002;5.464;2022-09-23T12:53:56;101302.88;;;23.18;44.89
55187;BME280;55457;52.002;5.464;2022-09-23T12:56:23;101299.97;;;23.25;44.64
55187;BME280;55457;52.002;5.464;2022-09-23T13:03:49;101296.56;;;23.34;44.37
55187;BME280;55457;52.002;5.464;2022-09-23T13:09:24;101293.50;;;23.31;44.00
55187;BME280;55457;52.002;5.464;2022-09-23T13:11:51;101295.66;;;23.29;44.27
55187;BME280;55457;52.002;5.464;2022-09-23T13:14:21;101297.81;;;23.27;44.46
55187;BME280;55457;52.002;5.464;2022-09-23T13:16:47;101296.16;;;23.26;44.29
55187;BME280;55457;52.002;5.464;2022-09-23T13:22:05;101290.09;;;23.18;44.37
55187;BME280;55457;52.002;5.464;2022-09-23T13:24:42;101283.84;;;23.18;44.44
55187;BME280;55457;52.002;5.464;2022-09-23T13:27:30;101284.66;;;23.18;44.19
55187;BME280;55457;52.002;5.464;2022-09-23T13:29:58;101287.38;;;23.18;44.38
55187;BME280;55457;52.002;5.464;2022-09-23T13:32:33;101286.31;;;23.20;44.50
55187;BME280;55457;52.002;5.464;2022-09-23T13:35:03;101277.88;;;23.21;44.40
55187;BME280;55457;52.002;5.464;2022-09-23T13:37:43;101284.97;;;23.22;45.39
55187;BME280;55457;52.002;5.464;2022-09-23T13:40:27;101278.13;;;23.20;44.00
55187;BME280;55457;52.002;5.464;2022-09-23T13:42:56;101281.34;;;23.16;44.85
55187;BME280;55457;52.002;5.464;2022-09-23T13:45:25;101274.28;;;23.15;44.82
55187;BME280;55457;52.002;5.464;2022-09-23T13:47:53;101275.91;;;23.16;45.02
55187;BME280;55457;52.002;5.464;2022-09-23T13:50:22;101274.84;;;23.17;45.02
55187;BME280;55457;52.002;5.464;2022-09-23T13:52:54;101281.34;;;23.16;45.26
55187;BME280;55457;52.002;5.464;2022-09-23T14:00:24;101263.88;;;23.12;45.37
55187;BME280;55457;52.002;5.464;2022-09-23T14:02:50;101270.19;;;23.13;45.50
55187;BME280;55457;52.002;5.464;2022-09-23T14:05:21;101268.00;;;23.15;45.37
55187;BME280;55457;52.002;5.464;2022-09-23T14:07:48;101255.25;;;23.15;45.60
55187;BME280;55457;52.002;5.464;2022-09-23T14:10:20;101258.53;;;23.17;45.63
55187;BME280;55457;52.002;5.464;2022-09-23T14:12:47;101257.69;;;23.17;45.88
55187;BME280;55457;52.002;5.464;2022-09-23T14:15:14;101251.72;;;23.15;45.77
55187;BME280;55457;52.002;5.464;2022-09-23T14:17:44;101253.34;;;23.16;45.87
55187;BME280;55457;52.002;5.464;2022-09-23T14:20:13;101255.81;;;23.17;46.05
55187;BME280;55457;52.002;5.464;2022-09-23T14:22:39;101252.03;;;23.18;46.27
55187;BME280;55457;52.002;5.464;2022-09-23T14:25:13;101237.84;;;23.16;46.09
55187;BME280;55457;52.002;5.464;2022-09-23T14:27:42;101249.53;;;23.17;46.62
55187;BME280;55457;52.002;5.464;2022-09-23T14:30:16;101241.31;;;23.12;46.60
55187;BME280;55457;52.002;5.464;2022-09-23T14:32:44;101240.44;;;23.06;46.34
55187;BME280;55457;52.002;5.464;2022-09-23T14:35:20;101240.22;;;23.08;46.65
55187;BME280;55457;52.002;5.464;2022-09-23T14:37:49;101238.53;;;23.07;46.36
55187;BME280;55457;52.002;5.464;2022-09-23T14:40:56;101237.72;;;23.06;46.48
55187;BME280;55457;52.002;5.464;2022-09-23T14:43:54;101232.06;;;23.08;46.68
55187;BME280;55457;52.002;5.464;2022-09-23T14:46:22;101234.50;;;23.09;46.58
55187;BME280;55457;52.002;5.464;2022-09-23T14:54:22;101233.97;;;23.12;46.75
55187;BME280;55457;52.002;5.464;2022-09-23T14:56:49;101221.47;;;23.11;46.39
55187;BME280;55457;52.002;5.464;2022-09-23T14:59:26;101223.09;;;23.12;46.58
55187;BME280;55457;52.002;5.464;2022-09-23T15:01:52;101219.84;;;23.10;46.72
55187;BME280;55457;52.002;5.464;2022-09-23T15:06:52;101217.94;;;23.11;46.60
55187;BME280;55457;52.002;5.464;2022-09-23T15:09:30;101216.03;;;23.11;46.63
55187;BME280;55457;52.002;5.464;2022-09-23T15:12:03;101218.75;;;23.11;46.40
55187;BME280;55457;52.002;5.464;2022-09-23T15:14:34;101210.59;;;23.11;46.64
55187;BME280;55457;52.002;5.464;2022-09-23T15:17:02;101212.22;;;23.12;46.44
55187;BME280;55457;52.002;5.464;2022-09-23T15:19:28;101208.13;;;23.10;46.54
55187;BME280;55457;52.002;5.464;2022-09-23T15:21:55;101211.69;;;23.10;46.48
55187;BME280;55457;52.002;5.464;2022-09-23T15:24:33;101219.56;;;23.12;46.54
55187;BME280;55457;52.002;5.464;2022-09-23T15:26:59;101211.69;;;23.10;46.72
55187;BME280;55457;52.002;5.464;2022-09-23T15:29:24;101206.25;;;23.10;46.81
55187;BME280;55457;52.002;5.464;2022-09-23T15:31:51;101211.69;;;23.10;46.58